DAL2523 KATL-KJFK
Flight info
| Callsign | DAL2523 |
|---|---|
| Flight time | N/A |
| Altitude | 35000 |
| Route | PHIIL3 HRTWL Q64 SAWED Q108 SIE CAMRN5 |
| Aircraft | A321/M-SDE3FGHIRWY/LB1 |
Departure
| Time | N/A |
|---|---|
| Airport | Hartsfield Jackson Atlanta International Airport (KATL) |
Arrival
| Time | 2026-05-05 15:06 |
|---|---|
| Airport | John F. Kennedy International Airport (KJFK) |
| Time | Latitude | Longitude | Altitude | Speed | Heading |
|---|---|---|---|---|---|
| 2026-05-05 14:24 | 37.39429 | -76.02020 | 35077 ft | 471 kts | 40° |
| 2026-05-05 14:24 | 37.44237 | -75.96433 | 35079 ft | 471 kts | 40° |
| 2026-05-05 14:25 | 37.49048 | -75.90839 | 35070 ft | 471 kts | 40° |
| 2026-05-05 14:25 | 37.53983 | -75.85434 | 35075 ft | 468 kts | 32° |
| 2026-05-05 14:26 | 37.59530 | -75.81203 | 35072 ft | 466 kts | 27° |
| 2026-05-05 14:26 | 37.65105 | -75.77022 | 35073 ft | 466 kts | 28° |
| 2026-05-05 14:27 | 37.70648 | -75.72853 | 35063 ft | 467 kts | 28° |
| 2026-05-05 14:27 | 37.76245 | -75.68643 | 35062 ft | 468 kts | 28° |
| 2026-05-05 14:28 | 37.81841 | -75.64428 | 35065 ft | 468 kts | 28° |
| 2026-05-05 14:28 | 37.87383 | -75.60097 | 35066 ft | 469 kts | 31° |
| 2026-05-05 14:29 | 37.92759 | -75.55387 | 35063 ft | 469 kts | 33° |
| 2026-05-05 14:29 | 37.98081 | -75.50589 | 35060 ft | 469 kts | 32° |
| 2026-05-05 14:30 | 38.03433 | -75.45851 | 35064 ft | 469 kts | 32° |
| 2026-05-05 14:30 | 38.08837 | -75.41241 | 35061 ft | 468 kts | 30° |
| 2026-05-05 14:31 | 38.14342 | -75.36826 | 35045 ft | 468 kts | 29° |
| 2026-05-05 14:31 | 38.19854 | -75.32418 | 35055 ft | 468 kts | 29° |
| 2026-05-05 14:32 | 38.25559 | -75.28536 | 35053 ft | 462 kts | 16° |
| 2026-05-05 14:32 | 38.31751 | -75.26725 | 35049 ft | 456 kts | 5° |
| 2026-05-05 14:33 | 38.37972 | -75.25422 | 35046 ft | 456 kts | 5° |
| 2026-05-05 14:33 | 38.44226 | -75.24104 | 35060 ft | 455 kts | 6° |
| 2026-05-05 14:34 | 38.50471 | -75.22787 | 35055 ft | 454 kts | 6° |
| 2026-05-05 14:34 | 38.56708 | -75.21475 | 35048 ft | 453 kts | 6° |
| 2026-05-05 14:35 | 38.62925 | -75.20166 | 35044 ft | 453 kts | 6° |
| 2026-05-05 14:35 | 38.69091 | -75.18425 | 35037 ft | 457 kts | 18° |
| 2026-05-05 14:36 | 38.74655 | -75.14405 | 35028 ft | 464 kts | 35° |
| 2026-05-05 14:36 | 38.78915 | -75.10220 | 35026 ft | 464 kts | 34° |
| 2026-05-05 14:37 | 38.84051 | -75.05195 | 35039 ft | 464 kts | 34° |
| 2026-05-05 14:37 | 38.89192 | -75.00144 | 35015 ft | 465 kts | 34° |
| 2026-05-05 14:38 | 38.94338 | -74.95081 | 34686 ft | 466 kts | 34° |
| 2026-05-05 14:38 | 38.96916 | -74.92537 | 34445 ft | 467 kts | 35° |
| 2026-05-05 14:38 | 38.99491 | -74.89993 | 34150 ft | 468 kts | 35° |
| 2026-05-05 14:39 | 39.02094 | -74.87422 | 33092 ft | 476 kts | 35° |
| 2026-05-05 14:39 | 39.04732 | -74.84816 | 32197 ft | 480 kts | 35° |
| 2026-05-05 14:39 | 39.07394 | -74.82187 | 31269 ft | 485 kts | 35° |
| 2026-05-05 14:39 | 39.10084 | -74.79522 | 30289 ft | 491 kts | 36° |
| 2026-05-05 14:40 | 39.12776 | -74.76754 | 29150 ft | 498 kts | 37° |
| 2026-05-05 14:40 | 39.15439 | -74.73895 | 28147 ft | 500 kts | 38° |
| 2026-05-05 14:40 | 39.18085 | -74.70978 | 27366 ft | 498 kts | 39° |
| 2026-05-05 14:40 | 39.20686 | -74.68081 | 26736 ft | 492 kts | 39° |
| 2026-05-05 14:41 | 39.23280 | -74.65205 | 26068 ft | 489 kts | 38° |
| 2026-05-05 14:41 | 39.25826 | -74.62409 | 25414 ft | 485 kts | 38° |
| 2026-05-05 14:41 | 39.28395 | -74.59613 | 24771 ft | 481 kts | 38° |
| 2026-05-05 14:41 | 39.30953 | -74.56848 | 24132 ft | 477 kts | 38° |
| 2026-05-05 14:42 | 39.33487 | -74.54114 | 23493 ft | 473 kts | 38° |
| 2026-05-05 14:42 | 39.36002 | -74.51396 | 22812 ft | 468 kts | 38° |
| 2026-05-05 14:42 | 39.38480 | -74.48710 | 22244 ft | 461 kts | 37° |
| 2026-05-05 14:42 | 39.40919 | -74.46056 | 21669 ft | 455 kts | 37° |
| 2026-05-05 14:43 | 39.43320 | -74.43439 | 21136 ft | 449 kts | 37° |
| 2026-05-05 14:43 | 39.45695 | -74.40845 | 20606 ft | 443 kts | 37° |
| 2026-05-05 14:43 | 39.48035 | -74.38289 | 20107 ft | 437 kts | 37° |
| 2026-05-05 14:43 | 39.50343 | -74.35764 | 19618 ft | 431 kts | 37° |
| 2026-05-05 14:44 | 39.52613 | -74.33276 | 19153 ft | 425 kts | 37° |
| 2026-05-05 14:44 | 39.54853 | -74.30817 | 18696 ft | 419 kts | 36° |
| 2026-05-05 14:44 | 39.57063 | -74.28390 | 18247 ft | 414 kts | 36° |
| 2026-05-05 14:44 | 39.59247 | -74.25991 | 17771 ft | 410 kts | 36° |
| 2026-05-05 14:45 | 39.61447 | -74.23584 | 17373 ft | 418 kts | 36° |
| 2026-05-05 14:45 | 39.63676 | -74.21144 | 16896 ft | 418 kts | 36° |
| 2026-05-05 14:45 | 39.65866 | -74.18739 | 16453 ft | 417 kts | 36° |
| 2026-05-05 14:45 | 39.68074 | -74.16305 | 16000 ft | 416 kts | 37° |
| 2026-05-05 14:46 | 39.70298 | -74.13848 | 15545 ft | 414 kts | 37° |
| 2026-05-05 14:46 | 39.72459 | -74.11461 | 15105 ft | 412 kts | 37° |
| 2026-05-05 14:46 | 39.74637 | -74.09055 | 14657 ft | 411 kts | 37° |
| 2026-05-05 14:46 | 39.76809 | -74.06654 | 14223 ft | 409 kts | 37° |
| 2026-05-05 14:47 | 39.78979 | -74.04255 | 13763 ft | 408 kts | 37° |
| 2026-05-05 14:47 | 39.81138 | -74.01865 | 13298 ft | 407 kts | 37° |
| 2026-05-05 14:47 | 39.83299 | -73.99496 | 12855 ft | 404 kts | 34° |
| 2026-05-05 14:47 | 39.85617 | -73.97503 | 12425 ft | 396 kts | 25° |
| 2026-05-05 14:48 | 39.88036 | -73.95804 | 11995 ft | 394 kts | 24° |
| 2026-05-05 14:48 | 39.90420 | -73.94125 | 11742 ft | 384 kts | 25° |
| 2026-05-05 14:48 | 39.92732 | -73.92489 | 11609 ft | 370 kts | 25° |
| 2026-05-05 14:48 | 39.94953 | -73.90914 | 11492 ft | 358 kts | 25° |
| 2026-05-05 14:49 | 39.97105 | -73.89386 | 11358 ft | 346 kts | 25° |
| 2026-05-05 14:49 | 39.99176 | -73.87910 | 11167 ft | 333 kts | 25° |
| 2026-05-05 14:49 | 40.01155 | -73.86492 | 10912 ft | 324 kts | 26° |
| 2026-05-05 14:49 | 40.03030 | -73.84811 | 10959 ft | 329 kts | 34° |
| 2026-05-05 14:50 | 40.04856 | -73.83005 | 10882 ft | 329 kts | 34° |
| 2026-05-05 14:50 | 40.06675 | -73.81188 | 10811 ft | 329 kts | 35° |
| 2026-05-05 14:50 | 40.08490 | -73.79365 | 10740 ft | 329 kts | 35° |
| 2026-05-05 14:50 | 40.10307 | -73.77542 | 10678 ft | 329 kts | 35° |
| 2026-05-05 14:51 | 40.12120 | -73.75723 | 10588 ft | 328 kts | 35° |
| 2026-05-05 14:51 | 40.13930 | -73.73907 | 10534 ft | 328 kts | 35° |
| 2026-05-05 14:51 | 40.15743 | -73.72091 | 10463 ft | 328 kts | 35° |
| 2026-05-05 14:51 | 40.17556 | -73.70279 | 10393 ft | 328 kts | 35° |
| 2026-05-05 14:52 | 40.19363 | -73.68468 | 10331 ft | 328 kts | 35° |
| 2026-05-05 14:52 | 40.21174 | -73.66653 | 10251 ft | 328 kts | 35° |
| 2026-05-05 14:52 | 40.22981 | -73.64838 | 10184 ft | 327 kts | 35° |
| 2026-05-05 14:52 | 40.24787 | -73.63023 | 9963 ft | 327 kts | 36° |
| 2026-05-05 14:53 | 40.26585 | -73.61212 | 10004 ft | 327 kts | 36° |
| 2026-05-05 14:53 | 40.28392 | -73.59391 | 10020 ft | 327 kts | 36° |
| 2026-05-05 14:53 | 40.30193 | -73.57572 | 10021 ft | 327 kts | 36° |
| 2026-05-05 14:53 | 40.32054 | -73.55862 | 10018 ft | 325 kts | 26° |
| 2026-05-05 14:54 | 40.34118 | -73.54711 | 9929 ft | 322 kts | 12° |
| 2026-05-05 14:54 | 40.36286 | -73.54115 | 9719 ft | 317 kts | 5° |
| 2026-05-05 14:54 | 40.38458 | -73.53599 | 9545 ft | 317 kts | 5° |
| 2026-05-05 14:54 | 40.40621 | -73.53079 | 9351 ft | 316 kts | 5° |
| 2026-05-05 14:55 | 40.42785 | -73.52558 | 9165 ft | 315 kts | 5° |
| 2026-05-05 14:55 | 40.44910 | -73.52043 | 8987 ft | 314 kts | 6° |
| 2026-05-05 14:55 | 40.47055 | -73.51520 | 8802 ft | 313 kts | 6° |
| 2026-05-05 14:55 | 40.49195 | -73.50994 | 8629 ft | 312 kts | 6° |
| 2026-05-05 14:56 | 40.51331 | -73.50466 | 8444 ft | 311 kts | 6° |
| 2026-05-05 14:56 | 40.53454 | -73.49941 | 8270 ft | 310 kts | 6° |
| 2026-05-05 14:56 | 40.55574 | -73.49418 | 8088 ft | 309 kts | 6° |
| 2026-05-05 14:56 | 40.57687 | -73.48898 | 7911 ft | 308 kts | 6° |
| 2026-05-05 14:57 | 40.59792 | -73.48384 | 7727 ft | 307 kts | 6° |
| 2026-05-05 14:57 | 40.61898 | -73.47872 | 7552 ft | 307 kts | 6° |
| 2026-05-05 14:57 | 40.63991 | -73.47363 | 7378 ft | 306 kts | 6° |
| 2026-05-05 14:57 | 40.66084 | -73.46848 | 7207 ft | 305 kts | 6° |
| 2026-05-05 14:58 | 40.68155 | -73.46266 | 7025 ft | 306 kts | 14° |
| 2026-05-05 14:58 | 40.70129 | -73.45181 | 6786 ft | 308 kts | 23° |
| 2026-05-05 14:58 | 40.72054 | -73.43950 | 6528 ft | 306 kts | 23° |
| 2026-05-05 14:58 | 40.74029 | -73.43031 | 6271 ft | 298 kts | 3° |
| 2026-05-05 14:59 | 40.76048 | -73.43159 | 6024 ft | 286 kts | 339° |
| 2026-05-05 14:59 | 40.77817 | -73.44239 | 5652 ft | 277 kts | 317° |
| 2026-05-05 14:59 | 40.79106 | -73.46046 | 5271 ft | 266 kts | 297° |
| 2026-05-05 14:59 | 40.80062 | -73.48128 | 4893 ft | 265 kts | 296° |
| 2026-05-05 15:00 | 40.81015 | -73.50206 | 4509 ft | 264 kts | 297° |
| 2026-05-05 15:00 | 40.81579 | -73.51613 | 4262 ft | 260 kts | 287° |
| 2026-05-05 15:00 | 40.81909 | -73.54656 | 3818 ft | 249 kts | 262° |
| 2026-05-05 15:00 | 40.81490 | -73.56834 | 3576 ft | 241 kts | 250° |
| 2026-05-05 15:01 | 40.80955 | -73.58843 | 3325 ft | 222 kts | 251° |
| 2026-05-05 15:01 | 40.80468 | -73.60690 | 3066 ft | 204 kts | 252° |
| 2026-05-05 15:01 | 40.80008 | -73.62397 | 3012 ft | 191 kts | 247° |
| 2026-05-05 15:01 | 40.79289 | -73.63773 | 3016 ft | 177 kts | 228° |
| 2026-05-05 15:02 | 40.78277 | -73.64706 | 3004 ft | 177 kts | 215° |
| 2026-05-05 15:02 | 40.77223 | -73.65527 | 3024 ft | 174 kts | 216° |
| 2026-05-05 15:02 | 40.76188 | -73.66337 | 3017 ft | 172 kts | 216° |
| 2026-05-05 15:02 | 40.75154 | -73.67150 | 2765 ft | 174 kts | 217° |
| 2026-05-05 15:03 | 40.74131 | -73.67952 | 2418 ft | 170 kts | 216° |
| 2026-05-05 15:03 | 40.73127 | -73.68740 | 2066 ft | 166 kts | 216° |
| 2026-05-05 15:03 | 40.72134 | -73.69522 | 1797 ft | 167 kts | 216° |
| 2026-05-05 15:03 | 40.71132 | -73.70309 | 1564 ft | 168 kts | 215° |
| 2026-05-05 15:04 | 40.70150 | -73.71077 | 1336 ft | 155 kts | 214° |
| 2026-05-05 15:04 | 40.69261 | -73.71772 | 1119 ft | 143 kts | 214° |
| 2026-05-05 15:04 | 40.68414 | -73.72437 | 939 ft | 140 kts | 213° |
| 2026-05-05 15:04 | 40.67582 | -73.73089 | 758 ft | 138 kts | 211° |
| 2026-05-05 15:05 | 40.65915 | -73.74395 | 388 ft | 141 kts | 207° |
| 2026-05-05 15:05 | 40.65076 | -73.75053 | 202 ft | 140 kts | 207° |
| 2026-05-05 15:05 | 40.64244 | -73.75710 | 36 ft | 134 kts | 208° |
| 2026-05-05 15:06 | 40.63556 | -73.76236 | 23 ft | 80 kts | 211° |
| 2026-05-05 15:06 | 40.63291 | -73.76449 | 22 ft | 31 kts | 211° |
| 2026-05-05 15:06 | 40.63114 | -73.76587 | 19 ft | 29 kts | 211° |
| 2026-05-05 15:06 | 40.62984 | -73.76765 | 22 ft | 26 kts | 240° |
| 2026-05-05 15:07 | 40.62929 | -73.76946 | 21 ft | 19 kts | 275° |
| 2026-05-05 15:07 | 40.62983 | -73.77087 | 23 ft | 16 kts | 300° |
| 2026-05-05 15:07 | 40.63032 | -73.77198 | 26 ft | 13 kts | 300° |
| 2026-05-05 15:07 | 40.63085 | -73.77313 | 27 ft | 17 kts | 301° |
| 2026-05-05 15:08 | 40.63149 | -73.77454 | 29 ft | 17 kts | 300° |
| 2026-05-05 15:08 | 40.63205 | -73.77580 | 29 ft | 16 kts | 300° |
| 2026-05-05 15:08 | 40.63266 | -73.77715 | 27 ft | 18 kts | 301° |
| 2026-05-05 15:08 | 40.63333 | -73.77835 | 27 ft | 15 kts | 338° |
| 2026-05-05 15:09 | 40.63423 | -73.77774 | 30 ft | 16 kts | 34° |
| 2026-05-05 15:09 | 40.63507 | -73.77723 | 22 ft | 10 kts | 340° |
| 2026-05-05 15:09 | 40.63549 | -73.77816 | 22 ft | 12 kts | 300° |
| 2026-05-05 15:09 | 40.63595 | -73.77882 | 23 ft | 9 kts | 332° |
| 2026-05-05 15:10 | 40.63656 | -73.77896 | 25 ft | 8 kts | 353° |
| 2026-05-05 15:10 | 40.63709 | -73.77904 | 23 ft | 7 kts | 352° |
| 2026-05-05 15:10 | 40.63719 | -73.77941 | 23 ft | 6 kts | 274° |
| 2026-05-05 15:10 | 40.63716 | -73.77997 | 23 ft | 5 kts | 262° |
| 2026-05-05 15:11 | 40.63714 | -73.78015 | 23 ft | 0 kts | 262° |
| 2026-05-05 15:11 | 40.63714 | -73.78016 | 23 ft | 0 kts | 262° |